aviador You're here:

DXNG Decoded Metar

NIATOUGOU in TOGO
Report Time2017-09-22 11:00:00
UTC Time2017-09-22 11:49:02
Flight Rules ifr IFR
Wind150° at 04 kt
W.Decomp.*RWY 21: 2.2 kt HW 3.4 kt LCW
W.Rank150° ranks 32
Current wind is below 150° avg. (5.2)
Visibility9999 m
Phenomena:N/A
Clouds:Broken 005 Hf
Expected CloudBase > 1,200 ft AGL from Temp-Dew spread
Ceiling500 ft
Temp23°C (ISA +10)
Dew Point20°C (83% RH)
QNH1017 hPa
Density Alt2,493 ft
Elevation1,125 ft
Report Wrong Elevation
Raw Report
DXNG 221100Z 15004KT 120V190 9999 BKN005 23/20 Q1017 NOSIG=

Extra information for DXNG:More info

Metar Taf Metar & Taf Last 4 Metars F.Rules Stats Wind Profile Meteogram Temp Stats Airport Information Weather charts Add Link Nearby VenuesMetar ALERT Operation Metar Decoded Social comments